Time;durP1;ratioP1;P1;durP2;ratioP2;P2;SDS_P1;SDS_P2;PMS_P1;PMS_P2;Temp;Humidity;BMP_temperature;BMP_pressure;BME280_temperature;BME280_humidity;BME280_pressure;Samples;Min_cycle;Max_cycle;Signal;HPM_P1;HPM_P2
2021/12/03 00:00:00;;;;;;;39.58;19.92;;;3.60;99.90;;;;;;5054668;28;20033;-71
2021/12/03 00:02:26;;;;;;;44.47;23.58;;;3.60;99.90;;;;;;5053489;28;20017;-71
2021/12/03 00:04:51;;;;;;;42.15;23.88;;;3.60;99.90;;;;;;5053055;28;20029;-71
2021/12/03 00:07:17;;;;;;;43.80;23.85;;;3.60;99.90;;;;;;5054061;28;20039;-71
2021/12/03 00:09:43;;;;;;;37.92;23.58;;;3.60;99.90;;;;;;5052712;28;20155;-71
2021/12/03 00:12:09;;;;;;;45.72;24.52;;;3.60;99.90;;;;;;5054310;28;20458;-71
2021/12/03 00:14:35;;;;;;;53.15;23.83;;;3.60;99.90;;;;;;5046304;28;20029;-71
2021/12/03 00:17:03;;;;;;;45.58;24.50;;;3.70;99.90;;;;;;5050478;28;20045;-71
2021/12/03 00:19:29;;;;;;;44.80;25.92;;;3.60;99.90;;;;;;5054332;28;20024;-71
2021/12/03 00:21:55;;;;;;;43.65;23.08;;;3.60;99.90;;;;;;5054115;28;20025;-71
2021/12/03 00:24:20;;;;;;;40.47;23.40;;;3.60;99.90;;;;;;5052950;28;20031;-71
2021/12/03 00:26:46;;;;;;;40.50;23.45;;;3.60;99.90;;;;;;5044931;28;20478;-72
2021/12/03 00:29:13;;;;;;;55.90;31.45;;;3.60;99.90;;;;;;5043818;28;20131;-72
2021/12/03 00:31:39;;;;;;;49.42;24.67;;;3.60;99.90;;;;;;5044820;28;20074;-72
2021/12/03 00:34:05;;;;;;;73.05;31.83;;;3.60;99.90;;;;;;5051111;28;20021;-72
2021/12/03 00:36:31;;;;;;;33.00;20.25;;;3.60;99.90;;;;;;5052036;28;20039;-72
2021/12/03 00:38:59;;;;;;;42.97;22.73;;;3.50;99.90;;;;;;5053451;28;20368;-72
2021/12/03 00:41:29;;;;;;;56.42;26.38;;;3.50;99.90;;;;;;5053971;28;20040;-72
2021/12/03 00:43:55;;;;;;;46.75;23.80;;;3.50;99.90;;;;;;5048678;28;20037;-72
2021/12/03 00:46:22;;;;;;;48.50;25.35;;;3.60;99.90;;;;;;5050660;28;20025;-71
2021/12/03 00:48:52;;;;;;;61.55;25.77;;;3.50;99.90;;;;;;5050399;28;20043;-71
2021/12/03 00:51:20;;;;;;;62.60;27.58;;;3.50;99.90;;;;;;5053155;28;20029;-71
2021/12/03 00:53:47;;;;;;;41.63;22.58;;;3.50;99.90;;;;;;5052262;28;20104;-72
2021/12/03 00:56:14;;;;;;;51.00;26.00;;;3.40;99.90;;;;;;5052749;28;20067;-72
2021/12/03 00:58:41;;;;;;;54.60;26.33;;;3.40;99.90;;;;;;5052791;28;20018;-72
2021/12/03 01:01:07;;;;;;;55.22;26.05;;;3.40;99.90;;;;;;5051385;28;20031;-71
2021/12/03 01:03:34;;;;;;;46.13;23.90;;;3.30;99.90;;;;;;5047335;28;20048;-71
2021/12/03 01:06:00;;;;;;;53.33;25.65;;;3.40;99.90;;;;;;5052156;28;20114;-72
2021/12/03 01:08:25;;;;;;;64.82;27.20;;;3.30;99.90;;;;;;5052846;28;20064;-72
2021/12/03 01:10:52;;;;;;;52.88;23.00;;;3.30;99.90;;;;;;5040572;28;20489;-72
2021/12/03 01:13:17;;;;;;;59.33;29.58;;;3.30;99.90;;;;;;5053018;28;20029;-72
2021/12/03 01:15:44;;;;;;;57.15;26.48;;;3.30;99.90;;;;;;5051489;28;20043;-72
2021/12/03 01:18:11;;;;;;;74.85;28.10;;;3.30;99.90;;;;;;5047655;28;20155;-72
2021/12/03 01:20:38;;;;;;;53.08;25.52;;;3.20;99.90;;;;;;5041952;28;20425;-72
2021/12/03 01:23:05;;;;;;;59.08;24.75;;;3.30;99.90;;;;;;5052679;28;20039;-72
2021/12/03 01:25:31;;;;;;;54.17;23.55;;;3.30;99.90;;;;;;5052356;28;20032;-72
2021/12/03 01:27:59;;;;;;;53.97;23.80;;;3.20;99.90;;;;;;5052938;28;20028;-72
2021/12/03 01:30:26;;;;;;;48.53;22.42;;;3.20;99.90;;;;;;5050379;28;20033;-72
2021/12/03 01:32:53;;;;;;;55.75;23.17;;;3.20;99.90;;;;;;5045674;28;20045;-71
2021/12/03 01:35:19;;;;;;;61.85;26.58;;;3.20;99.90;;;;;;5045409;28;20029;-72
2021/12/03 01:37:46;;;;;;;51.40;22.85;;;3.20;99.90;;;;;;5044994;28;20040;-72
2021/12/03 01:40:16;;;;;;;51.53;22.17;;;3.20;99.90;;;;;;5045441;28;20501;-72
2021/12/03 01:42:44;;;;;;;46.53;21.02;;;3.20;99.90;;;;;;5046333;28;20021;-71
2021/12/03 01:45:14;;;;;;;49.42;21.85;;;3.20;99.90;;;;;;5043901;28;20095;-72
2021/12/03 01:47:45;;;;;;;51.92;23.00;;;3.20;99.90;;;;;;5042180;28;20466;-72
2021/12/03 01:50:12;;;;;;;47.40;21.58;;;3.20;99.90;;;;;;5042184;28;20014;-72
2021/12/03 01:52:39;;;;;;;48.38;20.77;;;3.30;99.90;;;;;;5042731;28;20421;-72
2021/12/03 01:55:08;;;;;;;46.25;22.98;;;3.30;99.90;;;;;;5044421;28;20017;-72
2021/12/03 01:57:33;;;;;;;47.70;20.88;;;3.30;99.90;;;;;;5042366;28;20037;-72
2021/12/03 02:00:00;;;;;;;46.85;21.08;;;3.30;99.90;;;;;;5047008;28;20177;-72
2021/12/03 02:02:27;;;;;;;43.38;20.85;;;3.30;99.90;;;;;;5043411;28;20025;-71
2021/12/03 02:04:52;;;;;;;45.42;18.90;;;3.30;99.90;;;;;;5051341;28;20032;-71
2021/12/03 02:07:19;;;;;;;68.88;25.20;;;3.40;99.90;;;;;;5050348;28;20025;-71
2021/12/03 02:09:45;;;;;;;46.65;21.58;;;3.40;99.90;;;;;;5051516;28;20029;-71
2021/12/03 02:12:11;;;;;;;49.78;20.52;;;3.30;99.90;;;;;;5052560;28;20032;-71
2021/12/03 02:14:37;;;;;;;55.88;24.73;;;3.30;99.90;;;;;;5052132;28;20025;-71
2021/12/03 02:17:03;;;;;;;50.33;22.20;;;3.20;99.90;;;;;;5051949;28;20068;-71
2021/12/03 02:19:29;;;;;;;56.25;23.92;;;3.20;99.90;;;;;;5052174;28;20130;-71
2021/12/03 02:21:55;;;;;;;48.17;21.52;;;3.20;99.90;;;;;;5051236;28;20425;-71
2021/12/03 02:24:22;;;;;;;45.10;21.38;;;3.20;99.90;;;;;;5049968;28;20094;-71
2021/12/03 02:26:49;;;;;;;46.80;22.05;;;3.30;99.90;;;;;;5051752;28;20036;-71
2021/12/03 02:29:16;;;;;;;51.10;20.98;;;3.20;99.90;;;;;;5051406;28;20021;-71
2021/12/03 02:31:42;;;;;;;45.67;21.58;;;3.10;99.90;;;;;;5051394;28;20143;-71
2021/12/03 02:34:08;;;;;;;55.60;23.70;;;3.20;99.90;;;;;;5049350;28;20448;-71
2021/12/03 02:36:33;;;;;;;49.28;22.25;;;3.20;99.90;;;;;;5036834;28;20498;-71
2021/12/03 02:38:59;;;;;;;48.78;23.45;;;3.20;99.90;;;;;;5051743;28;20098;-71
2021/12/03 02:41:25;;;;;;;47.60;22.60;;;3.30;99.90;;;;;;5052206;28;20029;-71
2021/12/03 02:43:51;;;;;;;51.40;23.75;;;3.30;99.90;;;;;;5048791;28;20057;-71
2021/12/03 02:46:17;;;;;;;47.75;24.98;;;3.40;99.90;;;;;;5041938;28;20028;-71
2021/12/03 02:48:43;;;;;;;47.47;23.85;;;3.50;99.90;;;;;;5043347;28;20029;-71
2021/12/03 02:51:10;;;;;;;52.85;24.63;;;3.40;99.90;;;;;;5040373;28;20083;-71
2021/12/03 02:53:36;;;;;;;55.25;24.88;;;3.40;99.90;;;;;;5040621;28;20116;-71
2021/12/03 02:56:03;;;;;;;48.33;24.83;;;3.40;99.90;;;;;;5041845;28;20087;-71
2021/12/03 02:58:29;;;;;;;51.53;25.35;;;3.40;99.90;;;;;;5042530;28;20113;-71
2021/12/03 03:00:56;;;;;;;57.25;26.75;;;3.40;99.90;;;;;;5033627;28;20105;-71
2021/12/03 03:03:22;;;;;;;66.20;29.75;;;3.50;99.90;;;;;;5051732;28;20027;-71
2021/12/03 03:05:54;;;;;;;66.20;29.20;;;3.50;99.90;;;;;;5042049;28;20474;-71
2021/12/03 03:08:21;;;;;;;61.92;28.60;;;3.40;99.90;;;;;;5032346;28;20098;-71
2021/12/03 03:10:46;;;;;;;57.03;25.65;;;3.50;99.90;;;;;;5032547;28;20061;-71
2021/12/03 03:13:12;;;;;;;62.60;26.25;;;3.50;99.90;;;;;;5032296;28;20060;-72
2021/12/03 03:15:39;;;;;;;56.45;27.17;;;3.50;99.90;;;;;;5032430;28;20076;-71
2021/12/03 03:18:10;;;;;;;60.92;26.25;;;3.50;99.90;;;;;;5032125;28;20083;-71
2021/12/03 03:20:39;;;;;;;58.80;27.60;;;3.40;99.90;;;;;;5032279;28;20076;-71
2021/12/03 03:23:05;;;;;;;65.65;27.33;;;3.40;99.90;;;;;;5031964;28;20470;-71
2021/12/03 03:25:31;;;;;;;60.90;26.85;;;3.40;99.90;;;;;;5032271;28;20079;-71
2021/12/03 03:27:57;;;;;;;64.18;28.95;;;3.40;99.90;;;;;;5032094;28;20405;-71
2021/12/03 03:30:22;;;;;;;72.30;33.75;;;3.40;99.90;;;;;;5041316;28;20025;-71
2021/12/03 03:32:50;;;;;;;68.40;29.65;;;3.30;99.90;;;;;;5031934;28;20524;-71
2021/12/03 03:35:15;;;;;;;62.92;29.23;;;3.40;99.90;;;;;;5031080;28;20045;-71
2021/12/03 03:37:41;;;;;;;63.47;30.52;;;3.40;99.90;;;;;;5033003;28;20018;-72
2021/12/03 03:40:09;;;;;;;59.75;29.67;;;3.40;99.90;;;;;;5042591;28;20033;-72
2021/12/03 03:42:36;;;;;;;65.15;28.02;;;3.50;99.90;;;;;;5035521;28;20014;-72
2021/12/03 03:45:09;;;;;;;64.57;29.13;;;3.40;99.90;;;;;;5035807;28;20036;-72
2021/12/03 03:47:36;;;;;;;67.78;29.67;;;3.40;99.90;;;;;;5035487;28;20053;-73
2021/12/03 03:50:02;;;;;;;68.13;30.00;;;3.40;99.90;;;;;;5035722;28;20183;-72
2021/12/03 03:52:29;;;;;;;62.17;30.55;;;3.40;99.90;;;;;;5035846;28;20025;-72
2021/12/03 03:54:55;;;;;;;76.93;35.33;;;3.50;99.90;;;;;;5035534;28;20034;-72
2021/12/03 03:57:21;;;;;;;76.03;32.55;;;3.50;99.90;;;;;;5035003;28;20030;-72
2021/12/03 03:59:46;;;;;;;73.25;32.15;;;3.60;99.90;;;;;;5047759;28;20036;-72
2021/12/03 04:02:12;;;;;;;76.10;31.60;;;3.60;99.90;;;;;;5054854;28;20029;-72
2021/12/03 04:04:38;;;;;;;81.32;34.25;;;3.60;99.90;;;;;;5054519;28;20047;-73
2021/12/03 04:07:04;;;;;;;79.13;35.47;;;3.60;99.90;;;;;;5044883;28;20068;-73
2021/12/03 04:09:30;;;;;;;78.85;33.83;;;3.60;99.90;;;;;;5042668;28;20029;-72
2021/12/03 04:11:55;;;;;;;82.10;36.22;;;3.70;99.90;;;;;;5044759;28;20028;-73
2021/12/03 04:14:21;;;;;;;88.05;36.42;;;3.70;99.90;;;;;;5043319;28;20112;-72
2021/12/03 04:16:48;;;;;;;87.70;34.33;;;3.70;99.90;;;;;;5042699;28;20025;-73
2021/12/03 04:19:14;;;;;;;95.30;36.72;;;3.80;99.90;;;;;;5043585;28;20025;-73
2021/12/03 04:21:39;;;;;;;83.15;36.75;;;3.70;99.90;;;;;;5047331;28;20025;-72
2021/12/03 04:24:06;;;;;;;79.20;36.00;;;3.80;99.90;;;;;;5042515;28;20018;-73
2021/12/03 04:26:32;;;;;;;79.95;35.00;;;3.70;99.90;;;;;;5043882;28;20028;-72
2021/12/03 04:28:58;;;;;;;87.15;34.63;;;3.80;99.90;;;;;;5043090;28;20028;-72
2021/12/03 04:31:24;;;;;;;79.82;35.40;;;3.80;99.90;;;;;;5043514;28;20386;-72
2021/12/03 04:33:49;;;;;;;71.80;31.27;;;3.80;99.90;;;;;;5041063;28;20090;-72
2021/12/03 04:36:15;;;;;;;77.00;32.63;;;3.80;99.90;;;;;;5044109;28;20102;-72
2021/12/03 04:38:41;;;;;;;96.20;34.53;;;3.80;99.90;;;;;;5042926;28;20029;-73
2021/12/03 04:41:07;;;;;;;72.93;30.88;;;3.80;99.90;;;;;;5042534;28;20082;-72
2021/12/03 04:43:32;;;;;;;66.32;28.48;;;3.90;99.90;;;;;;5042935;28;20021;-72
2021/12/03 04:45:58;;;;;;;79.22;32.03;;;3.90;99.90;;;;;;5043357;28;20505;-72
2021/12/03 04:48:24;;;;;;;79.53;30.00;;;3.90;99.90;;;;;;5042237;28;20040;-72
2021/12/03 04:50:50;;;;;;;82.72;30.38;;;3.90;99.90;;;;;;5044136;28;20029;-72
2021/12/03 04:53:17;;;;;;;60.42;27.70;;;3.90;99.90;;;;;;5042280;28;20029;-72
2021/12/03 04:55:43;;;;;;;64.88;26.55;;;3.80;99.90;;;;;;5042155;28;20025;-72
2021/12/03 04:58:09;;;;;;;68.97;28.90;;;3.90;99.90;;;;;;5043975;28;20460;-72
2021/12/03 05:00:44;;;;;;;76.78;29.05;;;3.90;99.90;;;;;;5043689;28;20028;-73
2021/12/03 05:03:11;;;;;;;62.92;28.75;;;3.90;99.90;;;;;;5044286;28;20374;-73
2021/12/03 05:05:39;;;;;;;68.65;28.60;;;3.90;99.90;;;;;;5043191;28;20020;-72
2021/12/03 05:08:09;;;;;;;67.00;27.75;;;3.90;99.90;;;;;;5042915;28;20028;-72
2021/12/03 05:10:40;;;;;;;65.68;24.85;;;4.00;99.90;;;;;;5041281;28;20478;-72
2021/12/03 05:13:30;;;;;;;54.05;24.65;;;3.80;99.90;;;;;;5044272;28;20092;-73
2021/12/03 05:15:56;;;;;;;61.33;27.92;;;3.80;99.90;;;;;;5036461;28;20056;-73
2021/12/03 05:18:25;;;;;;;62.63;27.70;;;3.90;99.90;;;;;;5044389;28;20067;-72
2021/12/03 05:20:52;;;;;;;62.00;24.00;;;4.00;99.90;;;;;;5041494;28;20105;-73
2021/12/03 05:23:20;;;;;;;53.17;22.33;;;3.90;99.90;;;;;;5042765;28;20017;-73
2021/12/03 05:25:46;;;;;;;59.05;24.45;;;3.90;99.90;;;;;;5042965;28;20512;-72
2021/12/03 05:28:13;;;;;;;57.30;22.02;;;3.90;99.90;;;;;;5041429;28;20363;-73
2021/12/03 05:30:39;;;;;;;59.63;21.92;;;3.90;99.90;;;;;;5044609;28;20023;-73
2021/12/03 05:33:06;;;;;;;59.30;23.25;;;3.90;99.90;;;;;;5041422;28;20032;-72
2021/12/03 05:35:32;;;;;;;43.35;21.63;;;3.90;99.90;;;;;;5042923;28;20063;-73
2021/12/03 05:37:58;;;;;;;53.58;20.13;;;3.90;99.90;;;;;;5042591;28;20025;-73
2021/12/03 05:40:24;;;;;;;50.35;19.75;;;3.90;99.90;;;;;;5041043;28;20492;-73
2021/12/03 05:42:51;;;;;;;52.45;20.23;;;3.90;99.90;;;;;;5042921;28;20036;-73
2021/12/03 05:45:20;;;;;;;51.30;20.05;;;3.90;99.90;;;;;;5041111;28;20014;-73
2021/12/03 05:47:46;;;;;;;50.42;19.80;;;3.90;99.90;;;;;;5041523;28;20025;-73
2021/12/03 05:50:14;;;;;;;48.03;18.67;;;3.90;99.90;;;;;;5043073;28;20489;-73
2021/12/03 05:52:40;;;;;;;37.85;17.38;;;4.00;99.90;;;;;;5041391;28;20032;-73
2021/12/03 05:55:07;;;;;;;48.38;18.70;;;4.00;99.90;;;;;;5041160;28;20017;-73
2021/12/03 05:57:33;;;;;;;48.95;17.63;;;4.00;99.90;;;;;;5042134;28;20055;-73
2021/12/03 05:59:59;;;;;;;41.45;15.45;;;4.00;99.90;;;;;;5041396;28;20420;-72
2021/12/03 06:02:25;;;;;;;49.42;17.98;;;4.00;99.90;;;;;;5043682;28;20028;-73
2021/12/03 06:04:51;;;;;;;49.67;16.77;;;4.00;99.90;;;;;;5042914;28;20381;-73
2021/12/03 06:07:17;;;;;;;52.92;19.08;;;4.00;99.90;;;;;;5041132;28;20025;-73
2021/12/03 06:09:45;;;;;;;53.85;17.70;;;4.00;99.90;;;;;;5041383;28;20039;-73
2021/12/03 06:12:11;;;;;;;44.85;17.08;;;4.00;99.90;;;;;;5042648;28;20045;-73
2021/12/03 06:14:36;;;;;;;40.03;16.20;;;4.10;99.90;;;;;;5041176;28;20013;-73
2021/12/03 06:17:02;;;;;;;45.30;14.77;;;4.00;99.90;;;;;;5039682;28;20030;-73
2021/12/03 06:19:28;;;;;;;42.63;15.13;;;4.00;99.90;;;;;;5040771;28;20035;-72
2021/12/03 06:21:54;;;;;;;39.55;13.27;;;4.00;99.90;;;;;;5042375;28;20029;-73
2021/12/03 06:24:19;;;;;;;51.33;15.35;;;3.90;99.90;;;;;;5039980;28;20052;-72
2021/12/03 06:26:45;;;;;;;47.00;14.10;;;3.90;99.90;;;;;;5040379;28;20547;-72
2021/12/03 06:29:11;;;;;;;45.38;15.00;;;3.90;99.90;;;;;;5041290;28;20012;-72
2021/12/03 06:31:37;;;;;;;37.80;14.30;;;3.90;99.90;;;;;;5040155;28;20477;-72
2021/12/03 06:34:03;;;;;;;46.95;14.18;;;4.00;99.90;;;;;;5040921;28;20029;-73
2021/12/03 06:36:29;;;;;;;35.00;12.80;;;4.00;99.90;;;;;;5040321;28;20076;-72
2021/12/03 06:38:56;;;;;;;36.45;13.00;;;4.00;99.90;;;;;;5040126;28;20374;-72
2021/12/03 06:41:22;;;;;;;34.78;12.88;;;4.10;99.90;;;;;;5039956;28;20022;-72
2021/12/03 06:43:47;;;;;;;37.15;12.27;;;4.10;99.90;;;;;;5040033;28;20740;-73
2021/12/03 06:46:13;;;;;;;35.45;12.18;;;4.10;99.90;;;;;;5041463;28;20036;-73
2021/12/03 06:48:39;;;;;;;37.25;12.02;;;4.10;99.90;;;;;;5040524;28;20025;-73
2021/12/03 06:51:04;;;;;;;43.22;11.73;;;4.10;99.90;;;;;;5041678;28;20022;-73
2021/12/03 06:53:41;;;;;;;35.30;11.40;;;4.00;99.90;;;;;;5040047;28;20374;-73
2021/12/03 06:56:09;;;;;;;39.30;11.18;;;3.90;99.90;;;;;;5040225;28;20171;-72
2021/12/03 06:58:35;;;;;;;38.67;9.55;;;3.90;99.90;;;;;;5040558;28;20022;-72
2021/12/03 07:01:02;;;;;;;45.70;11.25;;;3.90;99.90;;;;;;5041087;28;20029;-72
2021/12/03 07:03:28;;;;;;;34.50;9.57;;;3.90;99.90;;;;;;5044676;28;20017;-73
2021/12/03 07:05:54;;;;;;;28.08;8.15;;;3.90;99.90;;;;;;5040408;28;20537;-73
2021/12/03 07:08:19;;;;;;;35.63;10.00;;;3.90;99.90;;;;;;5042891;28;20025;-73
2021/12/03 07:10:45;;;;;;;32.90;9.52;;;3.90;99.90;;;;;;5042691;28;20026;-73
2021/12/03 07:13:11;;;;;;;28.52;8.30;;;3.90;99.90;;;;;;5040879;28;20064;-73
2021/12/03 07:15:38;;;;;;;36.67;8.98;;;3.90;99.90;;;;;;5046887;28;20108;-72
2021/12/03 07:18:04;;;;;;;35.13;9.13;;;3.90;99.90;;;;;;5044891;28;20038;-72
2021/12/03 07:20:30;;;;;;;32.25;9.23;;;3.90;99.90;;;;;;5043864;28;20021;-73
2021/12/03 07:22:56;;;;;;;34.47;9.10;;;3.80;99.90;;;;;;5045451;28;20029;-73
2021/12/03 07:25:22;;;;;;;35.00;10.50;;;3.80;99.90;;;;;;5044669;28;20485;-72
2021/12/03 07:27:48;;;;;;;32.95;10.23;;;3.80;99.90;;;;;;5043976;28;20407;-72
2021/12/03 07:30:17;;;;;;;31.20;10.10;;;3.80;99.90;;;;;;5045819;28;20489;-72
2021/12/03 07:32:43;;;;;;;36.78;10.43;;;3.80;99.90;;;;;;5044436;28;20021;-72
2021/12/03 07:35:10;;;;;;;27.25;11.65;;;3.70;99.90;;;;;;5042404;28;20435;-73
2021/12/03 07:37:36;;;;;;;35.08;12.02;;;3.90;99.90;;;;;;5043462;28;20523;-73
2021/12/03 07:40:06;;;;;;;32.58;12.85;;;3.90;99.90;;;;;;5045907;28;20021;-73
2021/12/03 07:42:33;;;;;;;42.13;12.80;;;3.80;99.90;;;;;;5042599;28;20021;-72
2021/12/03 07:45:00;;;;;;;50.60;13.30;;;3.80;99.90;;;;;;5043524;28;20506;-72
2021/12/03 07:47:25;;;;;;;32.42;11.00;;;3.80;99.90;;;;;;5043089;28;20025;-73
2021/12/03 07:49:52;;;;;;;46.83;12.43;;;3.90;99.90;;;;;;5040082;28;20025;-72
2021/12/03 07:52:20;;;;;;;42.22;13.25;;;3.90;99.90;;;;;;5044496;28;20493;-72
2021/12/03 07:54:48;;;;;;;31.98;11.70;;;3.90;99.90;;;;;;5044039;28;20022;-73
2021/12/03 07:57:13;;;;;;;31.90;11.23;;;3.80;99.90;;;;;;5042719;28;20120;-73
2021/12/03 07:59:39;;;;;;;42.00;10.65;;;3.90;99.90;;;;;;5044519;28;20155;-73
2021/12/03 08:02:05;;;;;;;48.42;11.63;;;3.90;99.90;;;;;;5046161;28;20029;-72
2021/12/03 08:04:31;;;;;;;41.42;11.63;;;3.90;99.90;;;;;;5045737;28;20028;-72
2021/12/03 08:06:56;;;;;;;28.00;9.38;;;3.90;99.90;;;;;;5044853;28;20017;-72
2021/12/03 08:09:22;;;;;;;33.88;10.65;;;3.90;99.90;;;;;;5040335;28;20055;-73
2021/12/03 08:11:49;;;;;;;32.05;10.60;;;3.90;99.90;;;;;;5039316;28;20363;-73
2021/12/03 08:14:15;;;;;;;36.88;9.73;;;3.80;99.90;;;;;;5042584;28;20022;-72
2021/12/03 08:16:42;;;;;;;33.47;10.15;;;3.90;99.90;;;;;;5045092;28;20033;-72
2021/12/03 08:19:07;;;;;;;32.33;10.15;;;3.90;99.90;;;;;;5043052;28;20021;-72
2021/12/03 08:21:33;;;;;;;34.75;10.18;;;4.00;99.90;;;;;;5044753;28;20071;-73
2021/12/03 08:24:00;;;;;;;35.08;10.15;;;4.00;99.90;;;;;;5043383;28;20033;-73
2021/12/03 08:26:27;;;;;;;32.42;9.82;;;4.00;99.90;;;;;;5035312;28;20469;-72
2021/12/03 08:28:53;;;;;;;34.80;10.95;;;3.90;99.90;;;;;;5044898;28;20121;-71
2021/12/03 08:31:18;;;;;;;46.30;10.30;;;3.90;99.90;;;;;;5044001;28;20564;-72
2021/12/03 08:33:44;;;;;;;39.92;9.65;;;4.00;99.90;;;;;;5043522;28;20025;-72
2021/12/03 08:36:11;;;;;;;28.35;8.38;;;4.00;99.90;;;;;;5042348;28;20051;-72
2021/12/03 08:38:37;;;;;;;31.58;8.52;;;4.00;99.90;;;;;;5043903;28;20025;-72
2021/12/03 08:41:03;;;;;;;35.03;8.82;;;4.00;99.90;;;;;;5042443;28;20044;-72
2021/12/03 08:43:29;;;;;;;31.83;8.35;;;4.10;99.90;;;;;;5042013;28;20029;-72
2021/12/03 08:45:56;;;;;;;28.98;7.45;;;4.20;99.90;;;;;;5046946;28;20025;-72
2021/12/03 08:48:24;;;;;;;22.92;7.22;;;4.10;99.90;;;;;;5042621;28;20025;-72
2021/12/03 08:51:36;;;;;;;25.88;8.27;;;4.10;99.90;;;;;;5043332;28;20029;-72
2021/12/03 08:56:24;;;;;;;29.90;9.50;;;4.10;99.90;;;;;;5043362;28;20099;-72
2021/12/03 08:58:50;;;;;;;33.35;9.15;;;4.10;99.90;;;;;;5041737;28;20025;-70
2021/12/03 09:01:16;;;;;;;39.58;9.20;;;4.10;99.90;;;;;;5043083;28;20030;-70
2021/12/03 09:03:41;;;;;;;32.22;9.77;;;4.20;99.90;;;;;;5042572;28;20093;-70
2021/12/03 09:06:07;;;;;;;35.35;9.18;;;4.20;99.90;;;;;;5044508;28;20116;-70
2021/12/03 09:08:33;;;;;;;28.73;8.73;;;4.30;99.90;;;;;;5040201;28;20071;-70
2021/12/03 09:10:58;;;;;;;28.20;7.85;;;4.30;99.90;;;;;;5040439;28;20033;-71
2021/12/03 09:13:24;;;;;;;29.50;7.88;;;4.30;99.90;;;;;;5044086;28;20119;-73
2021/12/03 09:16:04;;;;;;;22.00;7.88;;;4.40;99.90;;;;;;5039476;28;20041;-71
2021/12/03 09:21:06;;;;;;;27.05;7.47;;;4.40;99.90;;;;;;5053214;28;20029;-74
2021/12/03 09:26:17;;;;;;;26.55;7.82;;;4.30;99.90;;;;;;5053422;28;20029;-72
2021/12/03 09:28:46;;;;;;;23.60;7.93;;;4.30;99.90;;;;;;5050670;28;20111;-72
2021/12/03 09:31:13;;;;;;;23.88;8.02;;;4.40;99.90;;;;;;5053325;28;20025;-72
2021/12/03 09:33:41;;;;;;;20.73;7.25;;;4.40;99.90;;;;;;5053018;28;20032;-72
2021/12/03 09:36:08;;;;;;;28.83;7.72;;;4.50;99.90;;;;;;5052517;28;20037;-73
2021/12/03 09:38:35;;;;;;;24.92;8.13;;;4.40;99.90;;;;;;5041670;28;20047;-71
2021/12/03 09:41:05;;;;;;;22.02;7.85;;;4.50;99.90;;;;;;5032399;28;20108;-71
2021/12/03 09:43:33;;;;;;;23.80;7.43;;;4.50;99.90;;;;;;5031987;28;20501;-72
2021/12/03 09:46:05;;;;;;;35.35;8.73;;;4.60;99.90;;;;;;5041277;28;20155;-73
2021/12/03 09:48:44;;;;;;;27.27;9.10;;;4.50;99.90;;;;;;5051089;28;20017;-74
2021/12/03 09:51:10;;;;;;;26.08;8.20;;;4.50;99.90;;;;;;5052120;28;20382;-72
2021/12/03 09:54:10;;;;;;;23.50;7.90;;;4.50;99.90;;;;;;5052155;28;20025;-74
2021/12/03 09:56:33;;;;;;;24.42;8.45;;;4.50;99.90;;;;;;5051270;28;20041;-74
2021/12/03 10:06:15;;;;;;;20.23;7.85;;;4.60;99.90;;;;;;5033000;28;20502;-72
2021/12/03 10:12:06;;;;;;;32.03;8.93;;;4.70;99.90;;;;;;5031970;28;20029;-72
2021/12/03 10:14:19;;;;;;;25.58;8.93;;;4.70;99.90;;;;;;5027544;28;20452;-72
2021/12/03 10:18:02;;;;;;;29.27;8.57;;;4.70;99.90;;;;;;5043490;28;20068;-73
2021/12/03 10:44:54;;;;;;;27.58;8.38;;;5.20;99.90;;;;;;5051560;28;20053;-71
2021/12/03 10:56:07;;;;;;;23.60;8.88;;;5.20;99.90;;;;;;5036235;28;20099;-71
2021/12/03 11:02:01;;;;;;;24.20;8.25;;;5.30;99.90;;;;;;5040209;28;20036;-71
2021/12/03 11:33:55;;;;;;;15.75;6.75;;;5.80;99.90;;;;;;5034456;28;20037;-71
2021/12/03 13:16:34;;;;;;;12.55;5.28;;;6.60;99.90;;;;;;5037420;28;20040;-72
2021/12/03 13:19:16;;;;;;;8.85;5.25;;;6.60;99.90;;;;;;5052592;28;20040;-76
2021/12/03 14:00:31;;;;;;;14.70;4.95;;;6.40;99.90;;;;;;5069164;28;20439;-72
2021/12/03 14:44:28;;;;;;;10.13;6.10;;;6.10;99.90;;;;;;5035522;28;20439;-72
2021/12/03 14:48:08;;;;;;;14.15;5.80;;;6.00;99.90;;;;;;5033709;28;20099;-72
2021/12/03 14:52:47;;;;;;;13.07;6.40;;;6.00;99.90;;;;;;5055204;28;20086;-72
2021/12/03 14:55:25;;;;;;;10.63;7.00;;;6.00;99.90;;;;;;5054954;28;20025;-72
2021/12/03 14:57:57;;;;;;;12.93;6.75;;;6.00;99.90;;;;;;5055097;28;20082;-72
2021/12/03 15:00:29;;;;;;;11.52;6.18;;;6.10;99.90;;;;;;5054952;28;20377;-72
2021/12/03 15:08:24;;;;;;;11.48;5.95;;;6.10;99.90;;;;;;5073750;28;20211;-72
2021/12/03 15:18:55;;;;;;;5.40;3.50;;;6.10;99.90;;;;;;5054342;28;20037;-72
2021/12/03 15:27:26;;;;;;;6.32;3.40;;;6.10;99.90;;;;;;5055015;28;20389;-72
2021/12/03 15:30:15;;;;;;;4.60;2.95;;;6.10;99.90;;;;;;5053586;28;20051;-72
2021/12/03 15:35:17;;;;;;;5.90;3.40;;;6.10;99.90;;;;;;5074304;28;20028;-72
2021/12/03 15:40:30;;;;;;;3.13;2.53;;;6.10;99.90;;;;;;5062511;28;20102;-72
2021/12/03 15:57:22;;;;;;;5.63;3.13;;;6.10;99.90;;;;;;5059654;28;20185;-73
2021/12/03 16:10:20;;;;;;;4.07;3.25;;;6.20;99.90;;;;;;5057013;28;20045;-73
2021/12/03 16:52:45;;;;;;;4.25;3.55;;;6.10;99.90;;;;;;5060550;28;20037;-74
2021/12/03 16:55:11;;;;;;;4.25;3.50;;;6.00;99.90;;;;;;5052686;28;20025;-73
2021/12/03 16:57:37;;;;;;;3.03;2.83;;;6.00;99.90;;;;;;5053065;28;20032;-73
2021/12/03 17:00:21;;;;;;;5.00;3.40;;;6.00;99.90;;;;;;5052457;28;20037;-73
2021/12/03 17:03:04;;;;;;;3.47;3.00;;;6.10;99.90;;;;;;5058305;28;20473;-74
2021/12/03 17:29:31;;;;;;;7.50;4.90;;;6.10;99.90;;;;;;5067333;28;20111;-74
2021/12/03 17:53:26;;;;;;;5.63;3.63;;;6.20;99.90;;;;;;5051992;28;20028;-73
2021/12/03 17:56:06;;;;;;;5.22;3.83;;;6.20;99.90;;;;;;5051948;28;20512;-73
2021/12/03 17:58:36;;;;;;;6.68;4.80;;;6.20;99.90;;;;;;5050852;28;20017;-73
2021/12/03 18:01:17;;;;;;;4.25;3.35;;;6.20;99.90;;;;;;5051301;28;20087;-72
2021/12/03 18:57:29;;;;;;;5.72;3.75;;;6.00;99.90;;;;;;5055139;28;20123;-74
2021/12/03 18:59:59;;;;;;;6.53;3.25;;;5.90;99.90;;;;;;5050353;28;20033;-74
2021/12/03 19:02:26;;;;;;;4.63;3.05;;;5.80;99.90;;;;;;5060592;28;20044;-75
2021/12/03 19:04:59;;;;;;;3.10;2.80;;;5.90;99.90;;;;;;5054517;28;20457;-75
2021/12/03 19:10:23;;;;;;;4.22;3.13;;;6.00;99.90;;;;;;5070727;28;20040;-74
2021/12/03 19:12:58;;;;;;;3.42;3.13;;;6.10;99.90;;;;;;5052067;28;20037;-75
2021/12/03 19:15:25;;;;;;;2.83;2.63;;;6.10;99.90;;;;;;5052541;28;20087;-74
2021/12/03 19:17:51;;;;;;;3.47;3.17;;;6.00;99.90;;;;;;5053815;28;20024;-75
2021/12/03 19:20:21;;;;;;;4.22;3.83;;;6.10;99.90;;;;;;5035512;28;20021;-75
2021/12/03 19:22:49;;;;;;;3.60;3.30;;;6.10;99.90;;;;;;5045329;28;20013;-75
2021/12/03 19:25:16;;;;;;;6.25;4.07;;;6.10;99.90;;;;;;5052016;28;20041;-75
2021/12/03 19:27:42;;;;;;;4.03;3.38;;;6.10;99.90;;;;;;5053137;28;20021;-74
2021/12/03 19:30:08;;;;;;;3.72;3.42;;;6.10;99.90;;;;;;5045659;28;20064;-74
2021/12/03 19:32:34;;;;;;;5.30;3.67;;;6.10;99.90;;;;;;5065211;28;20122;-74
2021/12/03 19:35:01;;;;;;;5.43;3.75;;;6.10;99.90;;;;;;5058680;28;20029;-74
2021/12/03 19:37:28;;;;;;;4.05;3.67;;;6.20;99.90;;;;;;5067237;28;20074;-74
2021/12/03 19:39:57;;;;;;;4.97;4.38;;;6.20;99.90;;;;;;5054884;28;20032;-74
2021/12/03 19:42:27;;;;;;;7.07;5.05;;;6.20;99.90;;;;;;5067363;28;20017;-74
2021/12/03 19:44:56;;;;;;;4.80;3.90;;;6.20;99.90;;;;;;5055413;28;20103;-74
2021/12/03 19:47:32;;;;;;;6.03;4.60;;;6.20;99.90;;;;;;5061288;28;20021;-75
2021/12/03 19:52:58;;;;;;;5.05;4.40;;;6.10;99.90;;;;;;5062398;28;20033;-75
2021/12/03 19:55:25;;;;;;;6.35;4.30;;;6.10;99.90;;;;;;5066836;28;20085;-74
2021/12/03 19:57:51;;;;;;;6.25;4.50;;;6.20;99.90;;;;;;5056215;28;20485;-74
2021/12/03 20:00:17;;;;;;;7.07;5.35;;;6.20;99.90;;;;;;5067988;28;20061;-74
2021/12/03 20:02:43;;;;;;;5.88;5.00;;;6.30;99.90;;;;;;5059945;28;20041;-75
2021/12/03 20:05:09;;;;;;;10.93;7.95;;;6.20;99.90;;;;;;5055340;28;20410;-75
2021/12/03 20:07:35;;;;;;;7.03;4.70;;;6.10;99.90;;;;;;5068570;28;20035;-75
2021/12/03 20:10:03;;;;;;;5.88;5.18;;;6.10;99.90;;;;;;5052815;28;20031;-74
2021/12/03 20:12:32;;;;;;;5.47;4.70;;;6.20;99.90;;;;;;5059279;28;20024;-75
2021/12/03 20:14:59;;;;;;;5.65;5.05;;;6.10;99.90;;;;;;5061636;28;20025;-75
2021/12/03 20:20:23;;;;;;;5.88;5.15;;;6.20;99.90;;;;;;5056138;28;20484;-74
2021/12/03 20:22:57;;;;;;;6.07;5.32;;;6.20;99.90;;;;;;5062370;28;20028;-75
2021/12/03 20:28:09;;;;;;;8.70;5.85;;;6.30;99.90;;;;;;5039107;28;20039;-74
2021/12/03 20:30:44;;;;;;;8.48;6.18;;;6.20;99.90;;;;;;5065065;28;20111;-74
2021/12/03 20:38:11;;;;;;;7.57;6.10;;;6.30;99.90;;;;;;5038151;28;20028;-74